Time;durP1;ratioP1;P1;durP2;ratioP2;P2;SDS_P1;SDS_P2;PMS_P1;PMS_P2;Temp;Humidity;BMP_temperature;BMP_pressure;BME280_temperature;BME280_humidity;BME280_pressure;Samples;Min_cycle;Max_cycle;Signal;HPM_P1;HPM_P2
2022/07/13 00:01:14;;;;;;;5.97;3.33;;;;;;;;;;5126858;28;19970;-71
2022/07/13 00:03:44;;;;;;;7.20;3.67;;;;;;;;;;5127075;28;20493;-71
2022/07/13 00:06:14;;;;;;;7.72;3.53;;;;;;;;;;5126924;28;20047;-72
2022/07/13 00:08:45;;;;;;;7.88;3.65;;;;;;;;;;5125849;27;20625;-70
2022/07/13 00:11:14;;;;;;;5.95;3.72;;;;;;;;;;5126877;28;20055;-73
2022/07/13 00:13:44;;;;;;;10.27;4.07;;;;;;;;;;5127117;28;20414;-73
2022/07/13 00:16:14;;;;;;;7.68;4.50;;;;;;;;;;5129048;27;20077;-73
2022/07/13 00:18:44;;;;;;;6.95;3.70;;;;;;;;;;5131326;27;20390;-72
2022/07/13 00:21:13;;;;;;;;;;;;;;;;;;5131632;27;20078;-70
2022/07/13 00:23:43;;;;;;;10.20;4.15;;;;;;;;;;5130497;27;19926;-70
2022/07/13 00:26:13;;;;;;;8.35;4.20;;;;;;;;;;5130547;27;20054;-71
2022/07/13 00:28:43;;;;;;;13.50;4.68;;;;;;;;;;5129422;27;20047;-71
2022/07/13 00:31:15;;;;;;;8.88;4.80;;;;;;;;;;5131014;27;20089;-72
2022/07/13 00:33:45;;;;;;;13.30;5.97;;;;;;;;;;5130808;27;20043;-71
2022/07/13 00:36:15;;;;;;;10.60;6.15;;;;;;;;;;5113082;27;20047;-71
2022/07/13 00:38:45;;;;;;;8.93;4.72;;;;;;;;;;5129251;27;20043;-72
2022/07/13 00:41:14;;;;;;;8.88;4.38;;;;;;;;;;5130322;27;20524;-71
2022/07/13 00:43:44;;;;;;;12.23;3.92;;;;;;;;;;5131165;27;20407;-71
2022/07/13 00:46:15;;;;;;;7.70;3.78;;;;;;;;;;5130513;27;20413;-72
2022/07/13 00:48:45;;;;;;;11.05;4.45;;;;;;;;;;5128885;27;20046;-70
2022/07/13 00:51:15;;;;;;;10.50;4.50;;;;;;;;;;5130626;27;20387;-72
2022/07/13 00:53:44;;;;;;;;;;;;;;;;;;5130877;27;20777;-71
2022/07/13 00:56:14;;;;;;;11.10;5.78;;;;;;;;;;5130372;27;19931;-71
2022/07/13 00:58:43;;;;;;;;;;;;;;;;;;5130552;27;20050;-71
2022/07/13 01:01:13;;;;;;;11.82;5.50;;;;;;;;;;5129954;27;20401;-72
2022/07/13 01:03:44;;;;;;;13.13;6.18;;;;;;;;;;5129816;27;20062;-71
2022/07/13 01:06:17;;;;;;;15.40;7.38;;;;;;;;;;5130427;27;20051;-73
2022/07/13 01:08:48;;;;;;;12.45;6.70;;;;;;;;;;5130415;27;20059;-72
2022/07/13 01:11:18;;;;;;;17.25;8.43;;;;;;;;;;5128183;27;20494;-72
2022/07/13 01:13:48;;;;;;;12.77;6.15;;;;;;;;;;5129831;27;20493;-72
2022/07/13 01:16:18;;;;;;;10.05;4.97;;;;;;;;;;5128072;27;20047;-71
2022/07/13 01:18:47;;;;;;;;;;;;;;;;;;5128662;27;20425;-70
2022/07/13 01:21:18;;;;;;;11.40;4.47;;;;;;;;;;5129793;27;19942;-71
2022/07/13 01:23:49;;;;;;;11.35;4.97;;;;;;;;;;5129889;27;20047;-71
2022/07/13 01:26:18;;;;;;;;;;;;;;;;;;5130016;27;20085;-71
2022/07/13 01:28:48;;;;;;;13.13;6.18;;;;;;;;;;5127893;27;19919;-70
2022/07/13 01:31:39;;;;;;;16.65;7.25;;;;;;;;;;5129975;27;20125;-70
2022/07/13 01:34:10;;;;;;;17.25;6.72;;;;;;;;;;5129458;27;20050;-71
2022/07/13 01:36:41;;;;;;;18.13;8.57;;;;;;;;;;5127183;27;20062;-70
2022/07/13 01:39:11;;;;;;;13.88;7.53;;;;;;;;;;5125785;27;20062;-70
2022/07/13 01:41:41;;;;;;;12.07;6.18;;;;;;;;;;5129099;27;20054;-71
2022/07/13 01:44:15;;;;;;;14.38;6.97;;;;;;;;;;5127157;27;20461;-72
2022/07/13 01:46:45;;;;;;;16.58;8.32;;;;;;;;;;5128929;27;20050;-71
2022/07/13 01:49:15;;;;;;;16.48;7.78;;;;;;;;;;5129035;27;20039;-71
2022/07/13 01:51:45;;;;;;;13.82;6.97;;;;;;;;;;5127810;27;20043;-72
2022/07/13 01:54:14;;;;;;;;;;;;;;;;;;5130117;27;20410;-71
2022/07/13 01:56:44;;;;;;;13.02;5.40;;;;;;;;;;5126854;27;20294;-71
2022/07/13 01:59:14;;;;;;;11.60;6.18;;;;;;;;;;5127715;27;20043;-70
2022/07/13 02:01:44;;;;;;;9.25;4.85;;;;;;;;;;5127330;27;20418;-71
2022/07/13 02:04:14;;;;;;;10.68;4.63;;;;;;;;;;5126874;27;20050;-71
2022/07/13 02:06:43;;;;;;;;;;;;;;;;;;5127737;27;21116;-72
2022/07/13 02:09:13;;;;;;;7.13;4.43;;;;;;;;;;5128987;27;19923;-71
2022/07/13 02:11:43;;;;;;;7.57;4.47;;;;;;;;;;5126908;27;20055;-72
2022/07/13 02:14:13;;;;;;;8.15;4.35;;;;;;;;;;5128317;27;20560;-71
2022/07/13 02:16:43;;;;;;;;;;;;;;;;;;5129682;27;20043;-70
2022/07/13 02:19:12;;;;;;;14.40;6.10;;;;;;;;;;5128508;27;19923;-72
2022/07/13 02:21:42;;;;;;;11.55;5.13;;;;;;;;;;5128436;27;20050;-71
2022/07/13 02:24:12;;;;;;;10.98;5.28;;;;;;;;;;5127060;27;20175;-71
2022/07/13 02:26:42;;;;;;;13.63;4.80;;;;;;;;;;5128808;27;20047;-71
2022/07/13 02:29:13;;;;;;;12.15;4.28;;;;;;;;;;5126507;27;20050;-71
2022/07/13 02:31:43;;;;;;;7.95;3.63;;;;;;;;;;5128541;27;20493;-71
2022/07/13 02:34:12;;;;;;;7.07;3.45;;;;;;;;;;5128166;27;20043;-72
2022/07/13 02:36:42;;;;;;;7.97;3.45;;;;;;;;;;5128586;27;20409;-71
2022/07/13 02:39:12;;;;;;;8.65;4.22;;;;;;;;;;5127546;27;20168;-71
2022/07/13 02:41:42;;;;;;;6.72;3.42;;;;;;;;;;5126618;27;20674;-72
2022/07/13 02:44:11;;;;;;;;;;;;;;;;;;5128868;27;20413;-72
2022/07/13 02:46:41;;;;;;;8.77;3.13;;;;;;;;;;5128321;27;20297;-72
2022/07/13 02:49:11;;;;;;;7.68;3.33;;;;;;;;;;5128605;27;20051;-72
2022/07/13 02:51:41;;;;;;;5.90;3.40;;;;;;;;;;5127862;27;20051;-71
2022/07/13 02:54:11;;;;;;;8.27;2.97;;;;;;;;;;5126352;27;20055;-71
2022/07/13 02:56:41;;;;;;;8.13;3.45;;;;;;;;;;5127981;27;20061;-71
2022/07/13 02:59:10;;;;;;;;;;;;;;;;;;5109291;27;20097;-70
2022/07/13 03:01:40;;;;;;;9.05;3.10;;;;;;;;;;5128160;27;19919;-71
2022/07/13 03:04:10;;;;;;;8.05;3.15;;;;;;;;;;5125976;27;20051;-72
2022/07/13 03:06:40;;;;;;;7.13;3.13;;;;;;;;;;5126288;27;20421;-72
2022/07/13 03:09:09;;;;;;;6.38;2.88;;;;;;;;;;5126351;27;20065;-71
2022/07/13 03:11:39;;;;;;;;;;;;;;;;;;5126441;27;20050;-72
2022/07/13 03:14:09;;;;;;;5.47;2.92;;;;;;;;;;5125538;27;19927;-72
2022/07/13 03:16:39;;;;;;;6.75;2.85;;;;;;;;;;5125920;27;20058;-71
2022/07/13 03:19:09;;;;;;;8.30;2.90;;;;;;;;;;5125885;27;20055;-71
2022/07/13 03:21:39;;;;;;;7.63;3.53;;;;;;;;;;5127784;27;20059;-72
2022/07/13 03:24:08;;;;;;;5.28;3.50;;;;;;;;;;5125896;27;20047;-71
2022/07/13 03:26:39;;;;;;;10.48;4.07;;;;;;;;;;5128048;27;20047;-72
2022/07/13 03:29:08;;;;;;;5.70;3.47;;;;;;;;;;5126008;27;20047;-71
2022/07/13 03:31:39;;;;;;;8.15;4.25;;;;;;;;;;5126312;27;20589;-70
2022/07/13 03:34:10;;;;;;;8.00;3.97;;;;;;;;;;5126293;27;20058;-71
2022/07/13 03:36:40;;;;;;;7.43;3.88;;;;;;;;;;5125835;27;20047;-70
2022/07/13 03:39:11;;;;;;;7.10;3.38;;;;;;;;;;5126234;28;20055;-71
2022/07/13 03:41:41;;;;;;;6.47;3.70;;;;;;;;;;5125401;28;20051;-70
2022/07/13 03:44:12;;;;;;;7.80;3.55;;;;;;;;;;5125892;28;20081;-70
2022/07/13 03:46:43;;;;;;;6.07;4.00;;;;;;;;;;5125665;28;20051;-71
2022/07/13 03:49:13;;;;;;;8.32;3.83;;;;;;;;;;5126733;27;20494;-70
2022/07/13 03:51:46;;;;;;;9.77;3.83;;;;;;;;;;5129901;27;20054;-71
2022/07/13 03:54:17;;;;;;;10.32;4.40;;;;;;;;;;5130357;27;20395;-71
2022/07/13 03:56:47;;;;;;;7.53;3.33;;;;;;;;;;5129474;27;20069;-72
2022/07/13 03:59:18;;;;;;;8.35;3.17;;;;;;;;;;5113228;27;20046;-72
2022/07/13 04:01:48;;;;;;;10.07;3.92;;;;;;;;;;5129739;27;20572;-71
2022/07/13 04:04:18;;;;;;;;;;;;;;;;;;5132022;27;20039;-71
2022/07/13 04:06:49;;;;;;;6.03;3.50;;;;;;;;;;5129292;27;19923;-70
2022/07/13 04:09:20;;;;;;;5.72;3.20;;;;;;;;;;5131272;27;20074;-71
2022/07/13 04:11:50;;;;;;;7.43;3.40;;;;;;;;;;5113176;27;20446;-72
2022/07/13 04:14:21;;;;;;;8.80;3.13;;;;;;;;;;5129913;27;20051;-72
2022/07/13 04:16:51;;;;;;;6.38;3.33;;;;;;;;;;5131634;27;20382;-72
2022/07/13 04:19:22;;;;;;;6.45;3.65;;;;;;;;;;5129551;27;20043;-69
2022/07/13 04:21:52;;;;;;;5.93;3.42;;;;;;;;;;5129297;27;20062;-71
2022/07/13 04:24:23;;;;;;;6.85;3.75;;;;;;;;;;5129832;27;20082;-71
2022/07/13 04:26:55;;;;;;;7.38;3.63;;;;;;;;;;5129721;27;20050;-72
2022/07/13 04:29:25;;;;;;;8.25;3.85;;;;;;;;;;5129462;27;20051;-70
2022/07/13 04:31:55;;;;;;;8.77;3.63;;;;;;;;;;5129061;27;20051;-71
2022/07/13 04:34:25;;;;;;;7.65;3.38;;;;;;;;;;5128988;27;20062;-71
2022/07/13 04:36:55;;;;;;;;;;;;;;;;;;5131686;27;20047;-72
2022/07/13 04:39:26;;;;;;;10.20;2.65;;;;;;;;;;5128905;27;19942;-71
2022/07/13 04:41:55;;;;;;;7.57;3.47;;;;;;;;;;5129008;27;20059;-72
2022/07/13 04:44:29;;;;;;;9.10;3.30;;;;;;;;;;5128544;27;20047;-72
2022/07/13 04:47:07;;;;;;;7.30;3.22;;;;;;;;;;5128595;27;20055;-71
2022/07/13 04:49:38;;;;;;;7.35;3.50;;;;;;;;;;5128987;27;20047;-71
2022/07/13 04:52:09;;;;;;;9.00;3.55;;;;;;;;;;5130355;27;20042;-71
2022/07/13 04:54:42;;;;;;;5.00;3.25;;;;;;;;;;5128031;27;20067;-71
2022/07/13 04:57:12;;;;;;;5.18;2.63;;;;;;;;;;5129295;27;20055;-71
2022/07/13 04:59:42;;;;;;;6.50;3.47;;;;;;;;;;5128880;27;20073;-71
2022/07/13 05:02:12;;;;;;;;;;;;;;;;;;5130123;27;20058;-71
2022/07/13 05:04:42;;;;;;;5.45;3.22;;;;;;;;;;5127781;27;19930;-70
2022/07/13 05:07:12;;;;;;;7.13;3.22;;;;;;;;;;5128590;27;20054;-70
2022/07/13 05:09:42;;;;;;;;;;;;;;;;;;5129065;27;20054;-70
2022/07/13 05:12:12;;;;;;;6.80;2.47;;;;;;;;;;5128151;27;19927;-70
2022/07/13 05:14:42;;;;;;;8.50;2.20;;;;;;;;;;5127984;27;20069;-72
2022/07/13 05:17:12;;;;;;;6.07;2.50;;;;;;;;;;5129012;27;20505;-71
2022/07/13 05:19:43;;;;;;;6.70;2.80;;;;;;;;;;5128000;27;20051;-71
2022/07/13 05:22:15;;;;;;;11.23;3.35;;;;;;;;;;5128823;27;20047;-70
2022/07/13 05:24:46;;;;;;;7.30;3.28;;;;;;;;;;5128163;27;20058;-72
2022/07/13 05:27:16;;;;;;;5.45;2.55;;;;;;;;;;5128364;27;20043;-71
2022/07/13 05:29:46;;;;;;;6.97;2.63;;;;;;;;;;5127743;27;20051;-71
2022/07/13 05:32:17;;;;;;;8.82;2.88;;;;;;;;;;5127994;27;20051;-70
2022/07/13 05:34:46;;;;;;;7.47;2.80;;;;;;;;;;5128112;27;20525;-71
2022/07/13 05:37:18;;;;;;;13.18;3.80;;;;;;;;;;5128259;27;20054;-71
2022/07/13 05:39:47;;;;;;;7.00;3.08;;;;;;;;;;5128264;27;20051;-71
2022/07/13 05:42:17;;;;;;;8.68;3.15;;;;;;;;;;5127718;27;20054;-72
2022/07/13 05:44:47;;;;;;;8.95;3.08;;;;;;;;;;5127615;27;20058;-70
2022/07/13 05:47:17;;;;;;;6.70;2.60;;;;;;;;;;5127416;27;20055;-71
2022/07/13 05:49:49;;;;;;;4.30;2.40;;;;;;;;;;5128058;27;20051;-71
2022/07/13 05:52:22;;;;;;;5.15;2.90;;;;;;;;;;5126967;27;20850;-71
2022/07/13 05:54:54;;;;;;;7.55;2.60;;;;;;;;;;5127282;27;20062;-71
2022/07/13 05:57:32;;;;;;;5.18;2.92;;;;;;;;;;5129654;27;20046;-71
2022/07/13 06:00:12;;;;;;;7.97;2.55;;;;;;;;;;5129714;27;20050;-71
2022/07/13 06:02:42;;;;;;;5.38;2.42;;;;;;;;;;5128964;27;20050;-71
2022/07/13 06:09:39;;;;;;;5.80;3.00;;;;;;;;;;5130053;27;20039;-71
2022/07/13 06:12:09;;;;;;;7.13;2.47;;;;;;;;;;5127265;27;20391;-71
2022/07/13 06:14:39;;;;;;;7.45;2.50;;;;;;;;;;5127945;27;20047;-71
2022/07/13 06:17:09;;;;;;;9.20;3.10;;;;;;;;;;5127752;27;20047;-70
2022/07/13 06:19:39;;;;;;;7.05;3.08;;;;;;;;;;5128749;27;20058;-71
2022/07/13 06:22:08;;;;;;;;;;;;;;;;;;5129070;27;20047;-70
2022/07/13 06:24:38;;;;;;;5.28;2.50;;;;;;;;;;5128798;27;19920;-70
2022/07/13 06:27:07;;;;;;;;;;;;;;;;;;5129331;27;20050;-70
2022/07/13 06:29:37;;;;;;;8.13;2.95;;;;;;;;;;5128091;27;19923;-71
2022/07/13 06:32:07;;;;;;;5.03;2.25;;;;;;;;;;5128507;27;20058;-72
2022/07/13 06:34:38;;;;;;;6.00;3.08;;;;;;;;;;5128299;27;20043;-71
2022/07/13 06:37:07;;;;;;;6.80;2.80;;;;;;;;;;5128218;27;20054;-71
2022/07/13 06:39:57;;;;;;;5.97;2.50;;;;;;;;;;5128520;27;20051;-71
2022/07/13 06:42:27;;;;;;;6.65;2.47;;;;;;;;;;5127886;27;20047;-71
2022/07/13 07:08:25;;;;;;;4.90;2.13;;;;;;;;;;5128687;27;20047;-71
2022/07/13 07:10:55;;;;;;;7.15;2.88;;;;;;;;;;5128058;27;20039;-70
2022/07/13 07:13:25;;;;;;;4.40;2.70;;;;;;;;;;5128102;27;20050;-72
2022/07/13 07:15:55;;;;;;;5.80;2.78;;;;;;;;;;5127314;27;20059;-71
2022/07/13 07:18:25;;;;;;;5.10;2.67;;;;;;;;;;5127129;27;20051;-71
2022/07/13 07:20:55;;;;;;;5.28;2.67;;;;;;;;;;5127440;27;20529;-71
2022/07/13 07:23:25;;;;;;;6.18;3.00;;;;;;;;;;5127356;27;20053;-71
2022/07/13 07:25:55;;;;;;;4.70;2.92;;;;;;;;;;5126042;27;20062;-71
2022/07/13 07:28:25;;;;;;;8.75;2.72;;;;;;;;;;5127481;27;20047;-70
2022/07/13 07:30:54;;;;;;;9.00;2.70;;;;;;;;;;5126342;27;20074;-71
2022/07/13 07:33:24;;;;;;;5.13;2.63;;;;;;;;;;5127121;27;20046;-72
2022/07/13 07:35:54;;;;;;;6.32;2.60;;;;;;;;;;5127298;27;20059;-70
2022/07/13 07:38:23;;;;;;;;;;;;;;;;;;5126790;27;20054;-70
2022/07/13 07:40:53;;;;;;;10.00;3.05;;;;;;;;;;5125883;28;19919;-70
2022/07/13 07:43:23;;;;;;;7.78;2.45;;;;;;;;;;5127113;28;20070;-70
2022/07/13 07:45:55;;;;;;;5.32;2.35;;;;;;;;;;5125526;28;20046;-70
2022/07/13 07:48:25;;;;;;;5.80;2.25;;;;;;;;;;5127271;28;20051;-71
2022/07/13 07:50:55;;;;;;;3.85;2.63;;;;;;;;;;5126028;28;20043;-71
2022/07/13 07:53:25;;;;;;;7.75;2.53;;;;;;;;;;5125959;28;20047;-70
2022/07/13 07:55:56;;;;;;;;;;;;;;;;;;5127727;28;20387;-71
2022/07/13 07:58:27;;;;;;;4.43;2.25;;;;;;;;;;5127383;28;19919;-71
2022/07/13 08:00:58;;;;;;;3.30;2.20;;;;;;;;;;5127839;28;20054;-71
2022/07/13 08:03:28;;;;;;;3.63;2.13;;;;;;;;;;5126420;28;20047;-70
2022/07/13 08:05:58;;;;;;;3.58;2.35;;;;;;;;;;5127127;28;20062;-71
2022/07/13 08:08:28;;;;;;;7.75;2.15;;;;;;;;;;5125933;27;20055;-71
2022/07/13 08:10:58;;;;;;;3.78;2.10;;;;;;;;;;5127445;28;20058;-70
2022/07/13 08:13:28;;;;;;;4.32;2.28;;;;;;;;;;5127395;28;20054;-70
2022/07/13 08:15:57;;;;;;;4.32;2.25;;;;;;;;;;5127108;28;20425;-71
2022/07/13 08:18:27;;;;;;;3.45;2.58;;;;;;;;;;5127515;28;20043;-70
2022/07/13 08:21:18;;;;;;;4.50;2.33;;;;;;;;;;5126968;28;20059;-70
2022/07/13 08:23:54;;;;;;;5.35;1.92;;;;;;;;;;5127340;28;20051;-70
2022/07/13 08:26:27;;;;;;;6.15;2.38;;;;;;;;;;5127625;28;20147;-70
2022/07/13 08:28:59;;;;;;;3.13;1.90;;;;;;;;;;5127117;28;20039;-71
2022/07/13 08:31:29;;;;;;;4.45;2.58;;;;;;;;;;5126894;28;20054;-70
2022/07/13 08:39:35;;;;;;;5.85;2.15;;;;;;;;;;5131079;27;20038;-71
2022/07/13 08:42:06;;;;;;;5.22;2.03;;;;;;;;;;5130596;27;20043;-71
2022/07/13 08:44:37;;;;;;;3.63;2.10;;;;;;;;;;5130133;27;20055;-71
2022/07/13 08:47:09;;;;;;;5.28;2.15;;;;;;;;;;5131115;27;20054;-71
2022/07/13 08:49:40;;;;;;;2.70;2.08;;;;;;;;;;5130836;27;20482;-71
2022/07/13 08:52:12;;;;;;;6.18;2.13;;;;;;;;;;5130211;27;20051;-71
2022/07/13 08:54:42;;;;;;;4.22;2.58;;;;;;;;;;5131039;27;20043;-71
2022/07/13 08:57:13;;;;;;;3.55;2.05;;;;;;;;;;5130738;27;20062;-71
2022/07/13 08:59:43;;;;;;;4.82;2.13;;;;;;;;;;5130022;27;20046;-70
2022/07/13 09:02:13;;;;;;;3.72;2.38;;;;;;;;;;5130336;27;20046;-70
2022/07/13 09:04:45;;;;;;;4.82;2.10;;;;;;;;;;5130012;27;20498;-71
2022/07/13 09:07:15;;;;;;;3.03;1.85;;;;;;;;;;5130672;27;20070;-70
2022/07/13 09:09:45;;;;;;;;;;;;;;;;;;5131002;27;20047;-71
2022/07/13 09:12:35;;;;;;;4.97;1.90;;;;;;;;;;5128894;27;19931;-70
2022/07/13 09:15:07;;;;;;;3.65;2.53;;;;;;;;;;5129908;27;20044;-71
2022/07/13 09:17:39;;;;;;;4.97;2.20;;;;;;;;;;5130362;27;20043;-71
2022/07/13 09:20:17;;;;;;;5.95;2.15;;;;;;;;;;5129924;27;20043;-71
2022/07/13 09:22:53;;;;;;;8.77;2.85;;;;;;;;;;5130279;27;20050;-71
2022/07/13 09:25:32;;;;;;;5.03;2.83;;;;;;;;;;5128278;27;20050;-71
2022/07/13 09:28:13;;;;;;;5.80;2.35;;;;;;;;;;5129978;27;20054;-71
2022/07/13 09:30:44;;;;;;;8.73;3.45;;;;;;;;;;5130085;27;20050;-70
2022/07/13 09:33:14;;;;;;;6.35;2.80;;;;;;;;;;5129840;27;20050;-71
2022/07/13 09:35:46;;;;;;;8.23;2.42;;;;;;;;;;5130501;27;20043;-71
2022/07/13 09:38:38;;;;;;;3.92;2.42;;;;;;;;;;5129714;27;20383;-70
2022/07/13 09:41:25;;;;;;;11.13;2.28;;;;;;;;;;5129426;27;20047;-71
2022/07/13 09:47:01;;;;;;;4.78;2.20;;;;;;;;;;5127615;27;20055;-71
2022/07/13 09:49:39;;;;;;;5.10;1.92;;;;;;;;;;5128129;27;20043;-71
2022/07/13 09:52:13;;;;;;;3.90;2.17;;;;;;;;;;5128983;27;20043;-71
2022/07/13 09:54:48;;;;;;;7.90;2.30;;;;;;;;;;5129218;27;20043;-70
2022/07/13 09:57:22;;;;;;;5.72;3.15;;;;;;;;;;5129587;27;20050;-71
2022/07/13 09:59:53;;;;;;;5.43;2.58;;;;;;;;;;5128931;27;20047;-70
2022/07/13 10:02:26;;;;;;;5.32;2.58;;;;;;;;;;5129384;27;20493;-71
2022/07/13 10:04:57;;;;;;;7.07;3.20;;;;;;;;;;5128881;27;20047;-71
2022/07/13 10:07:30;;;;;;;7.55;3.10;;;;;;;;;;5129089;27;20051;-70
2022/07/13 10:10:04;;;;;;;4.53;2.55;;;;;;;;;;5128930;27;20050;-71
2022/07/13 10:12:37;;;;;;;23.23;6.20;;;;;;;;;;5127920;27;20063;-71
2022/07/13 10:15:10;;;;;;;9.75;3.50;;;;;;;;;;5128806;27;20413;-71
2022/07/13 10:17:47;;;;;;;10.93;4.30;;;;;;;;;;5128665;27;20039;-72
2022/07/13 10:20:21;;;;;;;7.38;3.38;;;;;;;;;;5126739;27;20090;-70
2022/07/13 10:22:59;;;;;;;9.93;3.97;;;;;;;;;;5125876;27;20417;-70
2022/07/13 10:25:49;;;;;;;14.05;2.80;;;;;;;;;;5126352;27;20051;-70
2022/07/13 10:28:23;;;;;;;21.73;3.70;;;;;;;;;;5128546;27;20047;-71
2022/07/13 10:30:53;;;;;;;8.88;3.08;;;;;;;;;;5128586;27;20065;-73
2022/07/13 10:33:27;;;;;;;47.58;3.55;;;;;;;;;;5128587;27;20500;-70
2022/07/13 10:35:58;;;;;;;78.18;6.55;;;;;;;;;;5128461;27;20053;-71
2022/07/13 10:38:29;;;;;;;60.72;3.85;;;;;;;;;;5128227;27;20409;-74
2022/07/13 10:41:19;;;;;;;102.05;6.60;;;;;;;;;;5128223;27;20061;-70
2022/07/13 10:44:16;;;;;;;154.10;5.93;;;;;;;;;;5128113;27;20098;-74
2022/07/13 10:46:48;;;;;;;160.55;5.40;;;;;;;;;;5127688;27;20054;-71
2022/07/13 10:49:31;;;;;;;73.13;3.85;;;;;;;;;;5128241;27;20047;-71
2022/07/13 10:52:25;;;;;;;71.25;3.45;;;;;;;;;;5128177;27;20058;-70
2022/07/13 10:55:28;;;;;;;44.88;3.00;;;;;;;;;;5127823;27;20047;-71
2022/07/13 10:58:00;;;;;;;57.90;3.90;;;;;;;;;;5128442;27;20047;-70
2022/07/13 11:00:43;;;;;;;62.58;4.22;;;;;;;;;;5127339;27;20065;-71
2022/07/13 11:03:43;;;;;;;33.17;3.20;;;;;;;;;;5127669;27;20043;-71
2022/07/13 11:06:20;;;;;;;29.65;3.25;;;;;;;;;;5128254;27;20441;-71
2022/07/13 11:09:11;;;;;;;74.82;4.40;;;;;;;;;;5127661;27;20043;-73
2022/07/13 11:11:50;;;;;;;41.47;3.40;;;;;;;;;;5126204;27;21247;-71
2022/07/13 11:14:36;;;;;;;38.53;4.38;;;;;;;;;;5127733;27;20050;-72
2022/07/13 11:17:17;;;;;;;68.95;3.88;;;;;;;;;;5126150;27;20045;-71
2022/07/13 11:19:50;;;;;;;122.50;5.47;;;;;;;;;;5127446;27;20043;-71
2022/07/13 11:22:22;;;;;;;86.78;3.67;;;;;;;;;;5127844;27;20494;-70
2022/07/13 11:25:24;;;;;;;130.43;5.22;;;;;;;;;;5127340;27;20039;-73
2022/07/13 11:28:05;;;;;;;39.70;3.03;;;;;;;;;;5106873;27;20077;-75
2022/07/13 11:30:36;;;;;;;104.68;4.15;;;;;;;;;;5126019;27;20482;-72
2022/07/13 11:33:12;;;;;;;124.35;4.63;;;;;;;;;;5125847;27;20049;-71
2022/07/13 11:35:49;;;;;;;80.07;5.03;;;;;;;;;;5125257;27;20047;-71
2022/07/13 11:38:20;;;;;;;46.60;2.80;;;;;;;;;;5124241;27;20047;-71
2022/07/13 11:40:51;;;;;;;42.03;4.00;;;;;;;;;;5124514;28;20043;-72
2022/07/13 11:43:20;;;;;;;84.22;3.67;;;;;;;;;;5126091;28;20051;-72
2022/07/13 11:45:51;;;;;;;42.70;2.80;;;;;;;;;;5127457;28;20426;-72
2022/07/13 11:48:24;;;;;;;78.80;4.15;;;;;;;;;;5127371;28;20055;-71
2022/07/13 11:50:54;;;;;;;108.40;5.78;;;;;;;;;;5127228;28;20046;-71
2022/07/13 11:53:29;;;;;;;46.15;2.88;;;;;;;;;;5127199;28;20055;-71
2022/07/13 11:56:05;;;;;;;63.03;3.35;;;;;;;;;;5127380;28;20043;-71
2022/07/13 11:58:39;;;;;;;49.58;3.47;;;;;;;;;;5127427;28;20054;-72
2022/07/13 12:01:11;;;;;;;16.45;7.25;;;;;;;;;;5125830;28;20047;-71
2022/07/13 12:03:46;;;;;;;5.82;2.38;;;;;;;;;;5127096;28;20073;-71
2022/07/13 12:06:18;;;;;;;9.68;2.40;;;;;;;;;;5127294;28;20090;-71
2022/07/13 12:08:48;;;;;;;3.67;2.40;;;;;;;;;;5127906;28;20054;-72
2022/07/13 12:11:18;;;;;;;5.57;2.80;;;;;;;;;;5129694;27;20066;-70
2022/07/13 12:13:47;;;;;;;5.15;2.35;;;;;;;;;;5131002;27;20623;-70
2022/07/13 12:16:18;;;;;;;4.13;2.53;;;;;;;;;;5130920;27;20050;-70
2022/07/13 12:19:06;;;;;;;5.45;2.35;;;;;;;;;;5131751;27;20509;-70
2022/07/13 12:21:37;;;;;;;3.38;2.10;;;;;;;;;;5131017;27;20050;-70
2022/07/13 12:24:08;;;;;;;4.03;2.22;;;;;;;;;;5130455;27;20047;-70
2022/07/13 12:26:52;;;;;;;3.22;2.20;;;;;;;;;;5131140;27;20054;-72
2022/07/13 12:29:33;;;;;;;3.45;1.83;;;;;;;;;;5130792;27;20494;-71
2022/07/13 12:32:03;;;;;;;3.58;1.95;;;;;;;;;;5130670;27;20047;-70
2022/07/13 12:34:47;;;;;;;4.30;1.75;;;;;;;;;;5130743;27;20047;-71
2022/07/13 12:37:36;;;;;;;4.20;1.85;;;;;;;;;;5128475;27;20058;-71
2022/07/13 12:40:06;;;;;;;10.30;2.55;;;;;;;;;;5129217;27;20051;-72
2022/07/13 12:42:46;;;;;;;10.98;2.33;;;;;;;;;;5129654;27;20051;-71
2022/07/13 12:45:18;;;;;;;8.30;2.00;;;;;;;;;;5130669;27;20054;-71
2022/07/13 12:47:48;;;;;;;3.65;2.15;;;;;;;;;;5130062;27;20062;-72
2022/07/13 12:50:32;;;;;;;4.75;1.88;;;;;;;;;;5129094;27;20058;-71
2022/07/13 12:53:02;;;;;;;4.65;1.63;;;;;;;;;;5130291;27;20054;-71
2022/07/13 12:55:50;;;;;;;5.50;1.90;;;;;;;;;;5129214;27;20047;-71
2022/07/13 12:58:40;;;;;;;19.10;5.65;;;;;;;;;;5130168;27;20699;-71
2022/07/13 13:01:25;;;;;;;11.07;2.53;;;;;;;;;;5128471;27;20069;-71
2022/07/13 13:03:56;;;;;;;4.18;1.90;;;;;;;;;;5130409;27;20051;-71
2022/07/13 13:06:37;;;;;;;5.00;2.47;;;;;;;;;;5130551;27;20533;-72
2022/07/13 13:09:13;;;;;;;8.68;1.92;;;;;;;;;;5130269;27;20478;-71
2022/07/13 13:11:45;;;;;;;2.67;1.60;;;;;;;;;;5130481;27;20043;-70
2022/07/13 13:14:18;;;;;;;7.25;2.05;;;;;;;;;;5130446;27;20043;-70
2022/07/13 13:16:48;;;;;;;5.47;1.83;;;;;;;;;;5129391;27;20047;-74
2022/07/13 13:19:18;;;;;;;2.78;1.50;;;;;;;;;;5129814;27;20051;-71
2022/07/13 13:21:48;;;;;;;6.57;1.65;;;;;;;;;;5129536;27;20150;-72
2022/07/13 13:24:18;;;;;;;7.07;2.42;;;;;;;;;;5130190;27;20814;-71
2022/07/13 13:26:48;;;;;;;7.13;2.10;;;;;;;;;;5129572;27;20047;-72
2022/07/13 13:32:27;;;;;;;10.02;1.70;;;;;;;;;;5130034;27;20054;-72
2022/07/13 13:34:58;;;;;;;5.38;1.70;;;;;;;;;;5129393;27;20051;-72
2022/07/13 13:37:28;;;;;;;3.42;1.30;;;;;;;;;;5130349;27;20047;-72
2022/07/13 13:39:58;;;;;;;5.88;1.42;;;;;;;;;;5129495;27;20027;-72
2022/07/13 13:42:28;;;;;;;3.40;1.00;;;;;;;;;;5129436;27;20043;-72
2022/07/13 13:45:18;;;;;;;4.72;1.10;;;;;;;;;;5129487;27;20050;-71
2022/07/13 13:47:48;;;;;;;3.97;1.40;;;;;;;;;;5129514;27;20679;-72
2022/07/13 13:50:18;;;;;;;7.13;1.92;;;;;;;;;;5127768;27;20051;-71
2022/07/13 13:52:48;;;;;;;7.45;1.50;;;;;;;;;;5128466;27;20051;-71
2022/07/13 13:55:18;;;;;;;4.43;1.02;;;;;;;;;;5129492;27;20485;-72
2022/07/13 13:57:48;;;;;;;3.75;1.40;;;;;;;;;;5129231;27;20043;-73
2022/07/13 14:00:18;;;;;;;5.07;1.13;;;;;;;;;;5128945;27;20051;-72
2022/07/13 14:02:57;;;;;;;1.30;0.70;;;;;;;;;;5129383;27;20375;-71
2022/07/13 14:05:27;;;;;;;3.10;1.00;;;;;;;;;;5127066;27;20058;-72
2022/07/13 14:07:58;;;;;;;3.85;1.13;;;;;;;;;;5128931;27;20051;-72
2022/07/13 14:10:28;;;;;;;9.77;3.13;;;;;;;;;;5128897;27;20054;-74
2022/07/13 14:12:58;;;;;;;2.03;0.95;;;;;;;;;;5128694;27;20051;-72
2022/07/13 14:15:28;;;;;;;5.63;1.30;;;;;;;;;;5128975;27;20043;-73
2022/07/13 14:17:58;;;;;;;2.10;0.85;;;;;;;;;;5128187;27;20058;-73
2022/07/13 14:20:29;;;;;;;5.57;1.15;;;;;;;;;;5127019;27;20403;-73
2022/07/13 14:22:59;;;;;;;4.60;1.05;;;;;;;;;;5128365;27;20070;-73
2022/07/13 14:25:29;;;;;;;15.63;1.60;;;;;;;;;;5128584;27;20129;-73
2022/07/13 14:27:58;;;;;;;2.33;0.80;;;;;;;;;;5128351;27;20405;-75
2022/07/13 14:30:29;;;;;;;8.55;1.50;;;;;;;;;;5128102;27;20050;-72
2022/07/13 14:32:59;;;;;;;2.47;1.20;;;;;;;;;;5128406;27;20078;-72
2022/07/13 14:35:30;;;;;;;5.00;1.02;;;;;;;;;;5127437;27;20058;-72
2022/07/13 14:38:01;;;;;;;3.38;0.90;;;;;;;;;;5127969;27;20512;-72
2022/07/13 14:40:51;;;;;;;2.33;1.10;;;;;;;;;;5128542;27;20062;-73
2022/07/13 14:43:21;;;;;;;4.03;1.05;;;;;;;;;;5128350;27;20474;-74
2022/07/13 14:45:52;;;;;;;3.70;1.08;;;;;;;;;;5128401;27;20074;-74
2022/07/13 14:48:22;;;;;;;4.85;1.48;;;;;;;;;;5126574;27;20047;-73
2022/07/13 14:51:12;;;;;;;1.27;0.65;;;;;;;;;;5128105;27;20414;-73
2022/07/13 14:53:42;;;;;;;5.75;1.75;;;;;;;;;;5127950;27;20043;-73
2022/07/13 14:56:12;;;;;;;4.30;1.50;;;;;;;;;;5128332;27;20051;-72
2022/07/13 14:58:42;;;;;;;2.90;1.35;;;;;;;;;;5128078;27;20058;-73
2022/07/13 15:01:16;;;;;;;4.95;1.23;;;;;;;;;;5128480;27;20043;-74
2022/07/13 15:03:50;;;;;;;3.25;1.23;;;;;;;;;;5128020;27;20071;-73
2022/07/13 15:06:20;;;;;;;5.47;0.93;;;;;;;;;;5128103;27;20061;-73
2022/07/13 15:08:51;;;;;;;4.47;1.40;;;;;;;;;;5127753;27;20074;-72
2022/07/13 15:11:39;;;;;;;5.65;1.30;;;;;;;;;;5127546;27;20524;-72
2022/07/13 15:14:12;;;;;;;1.88;1.00;;;;;;;;;;5127038;27;20062;-72
2022/07/13 15:16:46;;;;;;;1.23;0.88;;;;;;;;;;5126525;27;20043;-72
2022/07/13 15:19:30;;;;;;;2.22;0.88;;;;;;;;;;5126251;27;20694;-73
2022/07/13 15:22:00;;;;;;;1.33;0.75;;;;;;;;;;5127891;27;20489;-73
2022/07/13 15:24:30;;;;;;;2.47;0.88;;;;;;;;;;5127832;27;20414;-72
2022/07/13 15:27:00;;;;;;;6.15;1.27;;;;;;;;;;5128079;27;20050;-72
2022/07/13 15:29:30;;;;;;;3.92;0.90;;;;;;;;;;5127721;27;20062;-73
2022/07/13 15:32:01;;;;;;;1.85;0.80;;;;;;;;;;5127904;27;20054;-72
2022/07/13 15:34:32;;;;;;;2.83;1.10;;;;;;;;;;5127190;27;20054;-73
2022/07/13 15:37:02;;;;;;;2.33;0.80;;;;;;;;;;5127547;27;20047;-73
2022/07/13 15:39:32;;;;;;;1.67;0.90;;;;;;;;;;5127210;27;20051;-73
2022/07/13 15:42:02;;;;;;;3.28;1.00;;;;;;;;;;5126048;27;20055;-73
2022/07/13 15:44:32;;;;;;;2.20;0.70;;;;;;;;;;5127739;28;20397;-75
2022/07/13 15:47:02;;;;;;;2.25;1.00;;;;;;;;;;5127219;28;20046;-73
2022/07/13 15:49:32;;;;;;;2.28;0.90;;;;;;;;;;5127879;28;20546;-72
2022/07/13 15:52:02;;;;;;;1.77;1.00;;;;;;;;;;5126685;28;20116;-73
2022/07/13 15:54:33;;;;;;;5.13;1.55;;;;;;;;;;5127541;28;20514;-72
2022/07/13 15:57:03;;;;;;;3.40;1.13;;;;;;;;;;5127413;28;20047;-72